Airfield :
LOGIN :

Register | Disclaimer

   EN    FR    IT 

 










Legend :    VFR   Marginal VFR   IFR   Intensive IFR   Very Intensive IFR
Visi :
Ceiling :
>= 8 km
>= 3000ft
5 to 8 km
1000 to 3000 ft
1500m to 5 km
500 to 1000 ft
800 to 1500m
200 to 500 ft
< 800m
< 200 ft
Symbols :   Thunderstorms  Fog  Heavy snow  Heavy precipitations  Wind > 20 kt
SIGMETs :     Misc.  Thunderstorms  Icing  Turbulence  Mountain Waves  Volcanic Ashes







- Airport Elevation : 102 ft
- IATA code : EXT
- Download approach charts


EGTE - Exeter

CURRENT METAR :
  • 242150Z 31004KT 280V340 CAVOK 16/14 Q1019

EXPIRED METARs :
  • 242120Z 30004KT 250V340 CAVOK 16/14 Q1018
  • 242050Z 29004KT 270V330 CAVOK 17/15 Q1018
  • 242020Z 30005KT 270V340 CAVOK 18/16 Q1018
  • 241950Z 29005KT 260V320 CAVOK 18/15 Q1018
  • 241920Z 30005KT CAVOK 18/14 Q1018

TAF TAF EGTE
Valid from the 24 at 21:00 until the 25 at 03:00 UTC


241955Z 2421/2503 30005KT 9999 FEW025
TEMPO 2421/2503 6000 RA
No reported NOTAMs for that airfield.
1 SIGMET reported for the London FIR (EGTT) :
 
Embedded thunderstorms
EGTT SIGMET 07 VALID 242100/250100 EGRR
EGTT LONDON FIR EMBD TS FCST WI N5000 W00200 - N5040 W00130 - N5040 E00030 - N5016 E00027 - N5000 W00015 - N5000 W00200 TOP FL360 MOV NNE 20KT NC=



MET'MAP, your aeronautical weather chart ! - Copyright ORBIFLY December 2007 - Disclaimer

ORBIFLY MET'MAP TEAM :

Programming & Development : Alexandra Zaïnal
Concept & Development : Baudouin d'Aumeries
Co-Development & Prog : Marc-Olivier Méhu
Technical & hardware support : Manuel Goepfert

Contact : metmap@orbifly.com




SOURCES & CREDITS :

   NOAA